createdAt,value
2019-01-04T00:02:13.372Z,2.63
2019-01-04T00:04:27.222Z,1.60
2019-01-04T00:07:10.936Z,3.80
2019-01-04T00:09:45.445Z,2.60
2019-01-04T00:12:01.485Z,3.43
2019-01-04T00:14:17.969Z,2.20
2019-01-04T00:19:19.488Z,3.23
2019-01-04T00:21:38.514Z,2.73
2019-01-04T00:24:00.699Z,2.30
2019-01-04T00:26:13.491Z,4.90
2019-01-04T00:28:38.190Z,1.60
2019-01-04T00:30:51.410Z,1.90
2019-01-04T00:33:03.895Z,2.80
2019-01-04T00:35:14.635Z,2.33
2019-01-04T00:37:24.249Z,2.90
2019-01-04T00:39:35.190Z,5.60
2019-01-04T00:41:50.537Z,2.80
2019-01-04T00:44:06.285Z,4.27
2019-01-04T00:46:20.532Z,3.10
2019-01-04T00:48:36.795Z,3.27
2019-01-04T00:51:06.302Z,3.63
2019-01-04T00:53:12.053Z,3.03
2019-01-04T00:55:48.035Z,5.87
2019-01-04T00:58:34.983Z,2.07
2019-01-04T01:01:15.051Z,6.77
2019-01-04T01:04:14.378Z,1.47
2019-01-04T01:06:56.012Z,1.83
2019-01-04T01:09:52.037Z,1.53
2019-01-04T01:12:41.975Z,5.23
2019-01-04T01:15:31.420Z,2.80
2019-01-04T01:18:40.683Z,2.03
2019-01-04T01:21:31.445Z,2.47
2019-01-04T01:24:30.632Z,6.53
2019-01-04T01:27:25.223Z,3.43
2019-01-04T01:30:08.725Z,2.23
2019-01-04T01:32:57.686Z,4.17
2019-01-04T01:35:28.910Z,2.93
2019-01-04T01:38:34.002Z,4.70
2019-01-04T01:41:19.500Z,1.97
2019-01-04T01:44:08.668Z,2.77
2019-01-04T01:46:41.636Z,3.60
2019-01-04T01:49:31.850Z,2.77
2019-01-04T01:52:02.221Z,1.67
2019-01-04T01:54:10.734Z,3.07
2019-01-04T01:56:19.560Z,1.50
2019-01-04T01:58:31.876Z,1.30
2019-01-04T02:00:40.871Z,2.97
2019-01-04T02:02:50.855Z,1.40
2019-01-04T02:04:58.152Z,1.30
2019-01-04T02:07:08.721Z,0.90
2019-01-04T02:09:19.710Z,1.17
2019-01-04T02:11:30.653Z,1.20
2019-01-04T02:13:40.320Z,1.27
2019-01-04T02:15:51.599Z,2.10
2019-01-04T02:18:02.309Z,1.53
2019-01-04T02:20:11.527Z,1.07
2019-01-04T02:22:23.444Z,4.20
2019-01-04T02:24:32.672Z,7.30
2019-01-04T02:26:44.818Z,1.87
2019-01-04T02:28:55.399Z,2.17
2019-01-04T02:31:05.360Z,1.10
2019-01-04T02:33:17.629Z,1.77
2019-01-04T02:35:31.291Z,1.03
2019-01-04T02:37:40.636Z,2.30
2019-01-04T02:39:54.403Z,1.40
2019-01-04T02:42:04.611Z,31.83
2019-01-04T02:44:17.820Z,61.43
2019-01-04T02:46:28.784Z,45.90
2019-01-04T02:48:37.216Z,56.47
2019-01-04T02:50:47.794Z,55.23
2019-01-04T02:52:56.637Z,65.97
2019-01-04T02:55:11.198Z,63.30
2019-01-04T02:57:19.890Z,80.70
2019-01-04T02:59:29.913Z,64.97
2019-01-04T03:01:40.817Z,75.73
2019-01-04T03:03:54.913Z,90.70
2019-01-04T03:06:10.048Z,68.80
2019-01-04T03:08:20.783Z,57.40
2019-01-04T03:10:31.352Z,72.80
2019-01-04T03:12:40.991Z,82.83
2019-01-04T03:14:49.253Z,107.37
2019-01-04T03:16:58.340Z,91.50
2019-01-04T03:19:16.973Z,93.87
2019-01-04T03:21:25.222Z,108.13
2019-01-04T03:23:34.929Z,97.40
2019-01-04T03:25:44.937Z,99.00
2019-01-04T03:27:54.651Z,110.87
2019-01-04T03:30:07.183Z,121.60
2019-01-04T03:32:15.403Z,111.37
2019-01-04T03:34:24.774Z,117.03
2019-01-04T03:36:34.480Z,110.83
2019-01-04T03:38:43.811Z,110.67
2019-01-04T03:40:52.102Z,109.73
2019-01-04T03:43:02.063Z,119.67
2019-01-04T03:45:10.743Z,121.40
2019-01-04T03:47:20.811Z,140.80
2019-01-04T03:49:31.162Z,112.77
2019-01-04T03:51:50.096Z,134.67
2019-01-04T03:54:00.470Z,154.90
2019-01-04T03:56:15.037Z,151.17
2019-01-04T03:58:25.685Z,141.13
2019-01-04T04:00:33.368Z,142.73
2019-01-04T04:02:42.095Z,148.10
2019-01-04T04:04:49.800Z,143.47
2019-01-04T04:07:04.755Z,137.30
2019-01-04T04:09:16.441Z,110.30
2019-01-04T04:11:24.906Z,118.60
2019-01-04T04:13:34.008Z,135.73
2019-01-04T04:15:45.611Z,130.17
2019-01-04T04:17:54.262Z,157.67
2019-01-04T04:20:03.131Z,137.87
2019-01-04T04:22:11.272Z,124.73
2019-01-04T04:24:26.462Z,136.37
2019-01-04T04:26:37.843Z,124.17
2019-01-04T04:28:49.438Z,120.20
2019-01-04T04:31:02.419Z,146.70
2019-01-04T04:33:12.199Z,156.07
2019-01-04T04:35:22.212Z,159.57
2019-01-04T04:37:31.763Z,160.90
2019-01-04T04:39:42.746Z,154.00
2019-01-04T04:41:55.777Z,150.63
2019-01-04T04:44:09.279Z,149.00
2019-01-04T04:46:19.524Z,150.43
2019-01-04T04:48:28.090Z,187.20
2019-01-04T04:50:37.018Z,182.30
2019-01-04T04:52:47.371Z,174.83
2019-01-04T04:54:54.485Z,168.07
2019-01-04T04:57:08.264Z,173.83
2019-01-04T04:59:34.870Z,166.03
2019-01-04T05:01:52.836Z,182.47
2019-01-04T05:04:05.255Z,167.50
2019-01-04T05:06:23.047Z,163.37
2019-01-04T05:08:32.973Z,147.10
2019-01-04T05:10:42.920Z,157.40
2019-01-04T05:12:57.030Z,137.23
2019-01-04T05:15:06.812Z,134.17
2019-01-04T05:17:16.632Z,126.80
2019-01-04T05:19:27.052Z,118.90
2019-01-04T05:21:37.061Z,97.10
2019-01-04T05:23:46.320Z,103.47
2019-01-04T05:25:55.450Z,94.30
2019-01-04T05:28:07.701Z,104.67
2019-01-04T05:30:28.125Z,112.97
2019-01-04T05:32:37.460Z,130.43
2019-01-04T05:34:44.794Z,118.53
2019-01-04T05:36:56.051Z,127.57
2019-01-04T05:39:06.456Z,140.47
2019-01-04T05:41:21.104Z,137.83
2019-01-04T05:43:31.444Z,155.83
2019-01-04T05:45:41.863Z,150.17
2019-01-04T05:47:52.939Z,156.27
2019-01-04T05:50:00.892Z,159.47
2019-01-04T05:52:12.220Z,165.57
2019-01-04T05:54:24.991Z,152.87
2019-01-04T05:56:36.309Z,162.97
2019-01-04T05:58:57.667Z,177.27
2019-01-04T06:01:19.984Z,180.63
2019-01-04T06:03:40.426Z,174.73
2019-01-04T06:05:54.040Z,172.90
2019-01-04T06:08:11.545Z,165.90
2019-01-04T06:10:48.547Z,170.43
2019-01-04T06:13:04.216Z,157.67
2019-01-04T06:15:18.874Z,145.40
2019-01-04T06:17:34.371Z,154.70
2019-01-04T06:19:58.996Z,148.87
2019-01-04T06:22:31.889Z,129.90
2019-01-04T06:24:34.560Z,124.30
2019-01-04T06:27:11.510Z,92.47
2019-01-04T06:29:31.299Z,97.07
2019-01-04T06:31:57.998Z,119.70
2019-01-04T06:34:17.085Z,136.47
2019-01-04T06:36:25.275Z,162.93
2019-01-04T06:38:32.738Z,144.50
2019-01-04T06:40:39.735Z,139.37
2019-01-04T06:42:56.299Z,156.23
2019-01-04T06:45:05.827Z,158.87
2019-01-04T06:47:23.100Z,151.50
2019-01-04T06:49:30.190Z,161.90
2019-01-04T06:51:38.161Z,161.63
2019-01-04T06:53:45.447Z,169.33
2019-01-04T06:56:03.777Z,160.20
2019-01-04T06:58:11.468Z,157.23
2019-01-04T07:00:18.534Z,165.10
2019-01-04T07:02:26.083Z,168.20
2019-01-04T07:04:33.616Z,188.33
2019-01-04T07:06:41.042Z,165.37
2019-01-04T07:08:50.421Z,177.23
2019-01-04T07:10:57.564Z,169.33
2019-01-04T07:13:04.531Z,169.47
2019-01-04T07:15:12.423Z,168.07
2019-01-04T07:17:21.120Z,150.23
2019-01-04T07:19:28.283Z,119.33
2019-01-04T07:21:35.525Z,98.23
2019-01-04T07:23:43.931Z,98.93
2019-01-04T07:25:51.940Z,94.07
2019-01-04T07:28:08.942Z,103.57
2019-01-04T07:30:16.113Z,82.47
2019-01-04T07:32:23.280Z,115.13
2019-01-04T07:34:30.823Z,145.40
2019-01-04T07:36:38.610Z,132.07
2019-01-04T07:38:45.750Z,127.67
2019-01-04T07:40:53.119Z,140.43
2019-01-04T07:43:00.576Z,147.40
2019-01-04T07:45:08.440Z,157.20
2019-01-04T07:47:15.701Z,157.73
2019-01-04T07:49:22.833Z,155.50
2019-01-04T07:51:30.225Z,151.50
2019-01-04T07:53:37.762Z,168.10
2019-01-04T07:55:44.893Z,165.97
2019-01-04T07:57:52.565Z,164.77
2019-01-04T08:00:00.656Z,162.77
2019-01-04T08:02:55.890Z,169.83
2019-01-04T08:05:03.320Z,165.37
2019-01-04T08:07:10.496Z,158.53
2019-01-04T08:09:17.843Z,187.20
2019-01-04T08:11:24.887Z,165.97
2019-01-04T08:13:32.108Z,176.47
2019-01-04T08:15:39.079Z,177.33
2019-01-04T08:17:46.185Z,166.57
2019-01-04T08:19:53.693Z,172.03
2019-01-04T08:22:00.910Z,137.23
2019-01-04T08:24:11.816Z,125.83
2019-01-04T08:26:19.131Z,125.30
2019-01-04T08:28:26.406Z,101.83
2019-01-04T08:30:33.743Z,103.20
2019-01-04T08:32:46.142Z,85.30
2019-01-04T08:35:01.910Z,103.43
2019-01-04T08:37:11.644Z,110.83
2019-01-04T08:39:20.422Z,107.90
2019-01-04T08:41:27.643Z,135.17
2019-01-04T08:43:35.100Z,157.43
2019-01-04T08:45:42.582Z,145.87
2019-01-04T08:47:50.700Z,151.57
2019-01-04T08:49:58.273Z,143.97
2019-01-04T08:52:05.565Z,165.50
2019-01-04T08:54:13.853Z,162.10
2019-01-04T08:56:23.612Z,168.47
2019-01-04T08:58:31.008Z,173.07
2019-01-04T09:00:38.067Z,171.47
2019-01-04T09:02:45.117Z,157.17
2019-01-04T09:04:53.166Z,177.97
2019-01-04T09:07:00.599Z,176.73
2019-01-04T09:09:27.458Z,179.47
2019-01-04T09:11:35.142Z,188.83
2019-01-04T09:13:42.526Z,186.47
2019-01-04T09:15:49.866Z,195.03
2019-01-04T09:17:58.710Z,183.60
2019-01-04T09:20:06.174Z,181.03
2019-01-04T09:22:13.247Z,171.33
2019-01-04T09:24:20.707Z,153.30
2019-01-04T09:26:27.937Z,112.40
2019-01-04T09:28:35.277Z,140.73
2019-01-04T09:30:42.418Z,144.73
2019-01-04T09:32:50.928Z,105.10
2019-01-04T09:34:58.366Z,151.23
2019-01-04T09:37:06.088Z,133.30
2019-01-04T09:39:13.809Z,156.03
2019-01-04T09:41:32.721Z,163.00
2019-01-04T09:43:40.177Z,146.93
2019-01-04T09:45:48.251Z,161.30
2019-01-04T09:47:55.624Z,170.93
2019-01-04T09:50:03.013Z,162.57
2019-01-04T09:52:10.136Z,188.47
2019-01-04T09:54:18.272Z,181.43
2019-01-04T09:56:25.424Z,177.50
2019-01-04T09:58:32.721Z,179.37
2019-01-04T10:00:39.832Z,180.60
2019-01-04T10:02:47.047Z,179.33
2019-01-04T10:04:54.903Z,163.63
2019-01-04T10:07:02.672Z,162.63
2019-01-04T10:09:10.567Z,140.33
2019-01-04T10:11:17.611Z,138.60
2019-01-04T10:13:24.735Z,120.47
2019-01-04T10:15:32.447Z,98.13
2019-01-04T10:17:42.595Z,109.20
2019-01-04T10:19:50.760Z,126.77
2019-01-04T10:21:57.894Z,143.27
2019-01-04T10:24:05.573Z,137.07
2019-01-04T10:26:12.612Z,166.40
2019-01-04T10:28:39.149Z,156.00
2019-01-04T10:30:46.160Z,152.27
2019-01-04T10:32:53.732Z,165.20
2019-01-04T10:35:00.995Z,165.63
2019-01-04T10:37:08.324Z,167.83
2019-01-04T10:39:15.174Z,172.77
2019-01-04T10:41:22.458Z,172.37
2019-01-04T10:43:29.763Z,175.57
2019-01-04T10:45:37.043Z,177.03
2019-01-04T10:47:44.339Z,166.07
2019-01-04T10:49:51.390Z,165.17
2019-01-04T10:51:58.560Z,159.77
2019-01-04T10:54:06.032Z,128.33
2019-01-04T10:56:13.401Z,112.53
2019-01-04T10:58:20.658Z,101.33
2019-01-04T11:00:27.738Z,90.23
2019-01-04T11:02:35.552Z,98.43
2019-01-04T11:04:42.725Z,116.63
2019-01-04T11:06:49.905Z,87.23
2019-01-04T11:08:57.281Z,156.53
2019-01-04T11:11:05.320Z,118.20
2019-01-04T11:13:12.498Z,119.27
2019-01-04T11:15:19.540Z,136.33
2019-01-04T11:17:26.878Z,138.53
2019-01-04T11:19:34.361Z,154.60
2019-01-04T11:21:42.229Z,160.27
2019-01-04T11:24:28.031Z,162.43
2019-01-04T11:26:51.964Z,161.67
2019-01-04T11:29:26.254Z,161.30
2019-01-04T11:32:01.642Z,167.23
2019-01-04T11:34:41.295Z,174.77
2019-01-04T11:37:03.162Z,183.83
2019-01-04T11:39:48.820Z,186.07
2019-01-04T11:42:43.887Z,178.60
2019-01-04T11:45:17.509Z,186.80
2019-01-04T11:47:48.113Z,191.00
2019-01-04T11:50:35.592Z,195.30
2019-01-04T11:52:50.281Z,192.57
2019-01-04T11:54:59.316Z,185.80
2019-01-04T11:57:07.212Z,191.40
2019-01-04T11:59:14.520Z,175.90
2019-01-04T12:01:21.602Z,165.07
2019-01-04T12:03:28.815Z,146.93
2019-01-04T12:05:36.162Z,133.47
2019-01-04T12:07:43.179Z,109.70
2019-01-04T12:09:50.272Z,98.40
2019-01-04T12:11:57.595Z,115.20
2019-01-04T12:14:04.899Z,91.27
2019-01-04T12:16:12.249Z,80.60
2019-01-04T12:18:19.180Z,143.43
2019-01-04T12:20:26.431Z,152.23
2019-01-04T12:22:33.811Z,98.83
2019-01-04T12:24:42.076Z,137.33
2019-01-04T12:26:49.254Z,139.73
2019-01-04T12:28:56.573Z,155.80
2019-01-04T12:31:03.895Z,141.60
2019-01-04T12:33:10.885Z,156.27
2019-01-04T12:35:18.108Z,154.73
2019-01-04T12:37:26.159Z,148.13
2019-01-04T12:39:33.344Z,114.23
2019-01-04T12:41:40.709Z,101.10
2019-01-04T12:46:01.144Z,86.93
2019-01-04T12:48:08.521Z,86.63
2019-01-04T12:50:15.830Z,73.73
2019-01-04T12:52:23.099Z,74.33
2019-01-04T12:54:30.177Z,74.87
2019-01-04T12:56:37.464Z,75.97
2019-01-04T12:58:44.758Z,70.37
2019-01-04T13:00:52.052Z,77.30
2019-01-04T13:02:59.114Z,73.97
2019-01-04T13:05:06.460Z,77.23
2019-01-04T13:07:13.521Z,71.13
2019-01-04T13:09:20.885Z,70.10
2019-01-04T13:11:28.051Z,72.80
2019-01-04T13:13:35.401Z,71.63
2019-01-04T13:15:42.728Z,64.67
2019-01-04T13:17:50.476Z,66.87
2019-01-04T13:20:00.845Z,59.87
2019-01-04T13:22:08.788Z,69.30
2019-01-04T13:24:15.854Z,56.77
2019-01-04T13:26:22.929Z,57.97
2019-01-04T13:28:30.176Z,57.43
2019-01-04T13:30:37.537Z,65.10
2019-01-04T13:32:44.530Z,56.47
2019-01-04T13:34:51.876Z,65.00
2019-01-04T13:36:59.031Z,55.70
2019-01-04T13:39:09.961Z,56.43
2019-01-04T13:41:17.243Z,63.73
2019-01-04T13:43:24.579Z,58.67
2019-01-04T13:45:32.483Z,60.40
2019-01-04T13:47:39.615Z,64.70
2019-01-04T13:49:46.786Z,63.13
2019-01-04T13:51:54.756Z,61.97
2019-01-04T13:54:01.999Z,58.87
2019-01-04T13:56:09.277Z,122.00
2019-01-04T13:58:16.404Z,139.00
2019-01-04T14:00:23.463Z,131.13
2019-01-04T14:02:30.722Z,143.00
2019-01-04T14:04:38.101Z,139.37
2019-01-04T14:06:45.980Z,115.37
2019-01-04T14:08:53.368Z,156.03
2019-01-04T14:11:00.715Z,147.40
2019-01-04T14:13:17.951Z,150.67
2019-01-04T14:15:28.800Z,145.03
2019-01-04T14:17:40.646Z,137.20
2019-01-04T14:19:53.433Z,122.80
2019-01-04T14:24:34.416Z,101.27
2019-01-04T14:26:44.553Z,77.43
2019-01-04T14:29:01.473Z,70.80
2019-01-04T14:31:13.005Z,77.30
2019-01-04T14:33:20.652Z,92.33
2019-01-04T14:35:36.409Z,82.60
2019-01-04T14:37:48.870Z,83.33
2019-01-04T14:40:13.383Z,98.90
2019-01-04T14:42:39.515Z,97.80
2019-01-04T14:44:47.499Z,121.67
2019-01-04T14:47:05.804Z,126.07
2019-01-04T14:49:22.946Z,126.07
2019-01-04T14:51:53.021Z,138.60
2019-01-04T14:54:05.874Z,138.03
2019-01-04T14:56:41.813Z,148.10
2019-01-04T14:58:53.355Z,150.53
2019-01-04T15:02:13.822Z,127.27
2019-01-04T15:04:18.811Z,81.90
2019-01-04T15:06:33.281Z,145.50
2019-01-04T15:08:48.740Z,150.03
2019-01-04T15:11:06.944Z,131.27
2019-01-04T15:13:30.313Z,131.13
2019-01-04T15:15:41.940Z,87.73
2019-01-04T15:18:16.492Z,82.13
2019-01-04T15:20:31.966Z,109.87
2019-01-04T15:22:59.996Z,97.63
2019-01-04T15:25:08.694Z,108.50
2019-01-04T15:27:38.624Z,122.50
2019-01-04T15:29:55.790Z,135.90
2019-01-04T15:32:21.239Z,148.77
2019-01-04T15:34:35.996Z,153.93
2019-01-04T15:37:11.095Z,149.47
2019-01-04T15:39:34.876Z,165.33
2019-01-04T15:41:53.542Z,162.20
2019-01-04T15:44:18.022Z,164.90
2019-01-04T15:46:40.692Z,157.67
2019-01-04T15:48:56.479Z,164.53
2019-01-04T15:51:14.540Z,156.27
2019-01-04T15:53:36.490Z,137.82
2019-01-04T15:56:01.227Z,134.60
2019-01-04T15:58:58.174Z,124.03
2019-01-04T16:03:48.537Z,120.00
2019-01-04T16:06:06.203Z,108.53
2019-01-04T16:09:00.526Z,99.37
2019-01-04T16:11:29.685Z,94.80
2019-01-04T16:13:49.479Z,83.63
2019-01-04T16:16:10.898Z,130.43
2019-01-04T16:18:29.439Z,111.57
2019-01-04T16:20:47.019Z,121.57
2019-01-04T16:23:12.067Z,134.07
2019-01-04T16:25:24.259Z,150.83
2019-01-04T16:28:24.567Z,142.60
2019-01-04T19:18:16.393Z,171.57
2019-01-04T19:34:49.270Z,175.97
2019-01-04T19:37:10.486Z,146.53
2019-01-04T19:39:47.459Z,150.23
2019-01-04T19:42:03.499Z,188.73
2019-01-04T19:44:37.069Z,153.07
2019-01-04T19:46:51.078Z,142.63
2019-01-04T19:49:09.079Z,156.60
2019-01-04T19:51:35.236Z,180.57
2019-01-04T19:53:57.657Z,190.53
2019-01-04T19:56:14.962Z,205.17
2019-01-04T19:58:50.302Z,218.20
2019-01-04T20:01:05.195Z,231.30
2019-01-04T20:03:21.187Z,245.30
2019-01-04T20:06:29.619Z,236.90
2019-01-04T20:09:51.800Z,225.93
2019-01-04T20:13:09.296Z,244.40
2019-01-04T20:16:03.986Z,199.70
2019-01-04T20:19:09.489Z,251.00
2019-01-04T20:21:41.218Z,204.90
2019-01-04T20:24:05.625Z,212.43
2019-01-04T20:26:47.147Z,158.93
2019-01-04T20:29:47.184Z,129.97
2019-01-04T20:32:35.285Z,131.13
2019-01-04T20:35:16.235Z,134.63
2019-01-04T20:38:05.212Z,152.47
2019-01-04T20:40:47.436Z,177.57
2019-01-04T20:43:35.504Z,195.80
2019-01-04T20:46:03.213Z,207.27
2019-01-04T20:48:37.153Z,190.47
2019-01-04T20:51:10.834Z,173.03
2019-01-04T20:53:45.401Z,202.33
2019-01-04T20:56:30.067Z,216.03
2019-01-04T20:58:57.876Z,196.60
2019-01-04T21:01:25.103Z,200.50
2019-01-04T21:03:52.791Z,225.87
2019-01-04T21:06:22.766Z,175.13
2019-01-04T21:09:01.084Z,219.57
2019-01-04T21:11:46.352Z,215.53
2019-01-04T21:14:15.382Z,210.70
2019-01-04T21:16:50.352Z,204.27
2019-01-04T21:19:28.638Z,215.50
2019-01-04T21:22:10.809Z,215.93
2019-01-04T21:24:38.095Z,170.50
2019-01-04T21:27:20.098Z,210.83
2019-01-04T21:29:56.373Z,199.83
2019-01-04T21:32:30.761Z,184.27
2019-01-04T21:34:56.272Z,225.87
2019-01-04T21:37:31.223Z,214.30
2019-01-04T21:40:11.929Z,206.23
2019-01-04T21:42:40.701Z,226.83
2019-01-04T21:45:08.855Z,231.63
2019-01-04T21:47:48.182Z,209.57
2019-01-04T21:50:42.855Z,170.50
2019-01-04T21:53:34.186Z,200.20
2019-01-04T21:56:27.656Z,160.10
2019-01-04T21:59:16.119Z,151.30
2019-01-04T22:02:15.735Z,169.07
2019-01-04T22:04:59.044Z,153.17
2019-01-04T22:07:55.480Z,178.90
2019-01-04T22:10:30.182Z,188.30
2019-01-04T22:13:31.253Z,194.20
2019-01-04T22:16:20.072Z,179.77
2019-01-04T22:19:16.510Z,204.90
2019-01-04T22:21:44.393Z,175.37
2019-01-04T22:24:47.584Z,147.27
2019-01-04T22:27:24.172Z,162.00
2019-01-04T22:30:10.377Z,149.57
2019-01-04T22:32:36.284Z,194.03
2019-01-04T22:35:02.419Z,183.57
2019-01-04T22:37:43.269Z,180.60
2019-01-04T22:40:06.713Z,212.03
2019-01-04T22:42:40.641Z,177.33
2019-01-04T22:45:05.784Z,208.77
2019-01-04T22:47:42.893Z,230.47
2019-01-04T22:50:12.526Z,164.33
2019-01-04T22:52:48.725Z,147.50
2019-01-04T22:55:25.602Z,145.70
2019-01-04T22:58:03.748Z,143.13
2019-01-04T23:00:56.309Z,139.23
2019-01-04T23:03:36.538Z,133.50
2019-01-04T23:05:56.841Z,118.33
2019-01-04T23:08:36.098Z,132.73
2019-01-04T23:11:14.042Z,120.60
2019-01-04T23:13:52.835Z,114.37
2019-01-04T23:16:24.093Z,116.07
2019-01-04T23:18:52.298Z,99.80
2019-01-04T23:21:40.089Z,94.93
2019-01-04T23:24:30.445Z,89.10
2019-01-04T23:27:05.413Z,90.00
2019-01-04T23:29:35.062Z,87.80
2019-01-04T23:32:07.940Z,83.13
2019-01-04T23:34:36.855Z,83.53
2019-01-04T23:37:08.349Z,79.00
2019-01-04T23:39:45.455Z,84.03
2019-01-04T23:42:25.207Z,80.87
2019-01-04T23:44:52.694Z,86.17
2019-01-04T23:47:22.118Z,79.07
2019-01-04T23:50:06.763Z,75.73
2019-01-04T23:53:08.746Z,73.33
2019-01-04T23:55:37.191Z,58.80
2019-01-04T23:58:24.840Z,56.43
